X  Cerrar Datos meteorológicos de aviación METAR     LIPX Verona-Villafranca Valerio Catullo Airport
Temperatura
52°F Temperatura
46°F Punto de rocío
82% Humedad



Viento
3 MPH
5 KM/H
1 M/S
3 NUDO



230°
SO
Condiciones actuales

Nubes mayormente dispersas Nubes mayormente dispersas
Presión 1013.88 (hPa) - 29.94 (inHg)
Visibilidad 6 (milla) - 9.7 (km)
Aeropuerto
Código de aeropuerto LIPX

localidad: Verona-Villafranca Valerio Catullo Airport
Distancia: 0 (mi)

Metar:
LIPX 290420Z 23003KT 9999 SCT090 11/08 Q1014

Hora: 29-02-2024 04:20 CET